Time;durP1;ratioP1;P1;durP2;ratioP2;P2;SDS_P1;SDS_P2;PMS_P1;PMS_P2;Temp;Humidity;BMP_temperature;BMP_pressure;BME280_temperature;BME280_humidity;BME280_pressure;Samples;Min_cycle;Max_cycle;Signal;HPM_P1;HPM_P2
2021/03/31 00:00:58;;;;;;;;;;;;;;;9.81;100.00;99590.72;5134028;28;19931;-77
2021/03/31 00:03:25;;;;;;;;;;;;;;;9.76;100.00;99585.56;5134246;28;20274;-77
2021/03/31 00:05:51;;;;;;;;;;;;;;;9.89;100.00;99583.13;5125729;28;20064;-77
2021/03/31 00:08:18;;;;;;;;;;;;;;;9.94;100.00;99580.69;5134067;28;20386;-77
2021/03/31 00:10:47;;;;;;;;;;;;;;;10.05;100.00;99581.44;5134136;28;19930;-77
2021/03/31 00:13:13;;;;;;;;;;;;;;;10.15;100.00;99561.03;5115947;28;20031;-77
2021/03/31 00:15:41;;;;;;;;;;;;;;;9.75;100.00;99569.22;5133971;28;19968;-77
2021/03/31 00:18:08;;;;;;;;;;;;;;;9.78;100.00;99566.44;5133838;28;19930;-77
2021/03/31 00:20:35;;;;;;;;;;;;;;;9.96;100.00;99567.13;5116012;28;19923;-77
2021/03/31 00:23:03;;;;;;;;;;;;;;;10.04;100.00;99565.09;5133930;28;19929;-77
2021/03/31 00:25:30;;;;;;;;;;;;;;;9.95;100.00;99559.94;5134079;28;19923;-77
2021/03/31 00:27:57;;;;;;;;;;;;;;;9.78;100.00;99548.88;5133850;28;19927;-77
2021/03/31 00:30:24;;;;;;;;;;;;;;;9.75;100.00;99546.91;5133728;28;20397;-77
2021/03/31 00:32:50;;;;;;;;;;;;;;;9.92;100.00;99566.31;5125955;28;19970;-77
2021/03/31 00:35:17;;;;;;;;;;;;;;;9.97;100.00;99565.91;5119835;28;20006;-77
2021/03/31 00:37:45;;;;;;;;;;;;;;;9.96;100.00;99555.16;5115783;28;20400;-77
2021/03/31 00:40:13;;;;;;;;;;;;;;;9.81;100.00;99556.44;5133641;28;19924;-77
2021/03/31 00:42:41;;;;;;;;;;;;;;;9.92;100.00;99554.38;5133933;28;19923;-78
2021/03/31 00:45:08;;;;;;;;;;;;;;;9.97;100.00;99556.72;5133498;28;19954;-77
2021/03/31 00:47:35;;;;;;;;;;;;;;;9.95;100.00;99550.78;5133684;28;20378;-77
2021/03/31 00:50:03;;;;;;;;;;;;;;;9.91;100.00;99541.63;5115547;28;19924;-77
2021/03/31 00:52:31;;;;;;;;;;;;;;;9.90;100.00;99551.19;5115580;28;20259;-77
2021/03/31 00:54:57;;;;;;;;;;;;;;;9.90;100.00;99545.63;5136096;27;19923;-77
2021/03/31 00:57:25;;;;;;;;;;;;;;;9.78;100.00;99546.09;5136896;27;19931;-78
2021/03/31 00:59:51;;;;;;;;;;;;;;;9.50;100.00;99532.25;5129030;27;20289;-77
2021/03/31 01:02:19;;;;;;;;;;;;;;;9.39;100.00;99529.50;5137221;27;19927;-77
2021/03/31 01:04:45;;;;;;;;;;;;;;;9.29;100.00;99537.91;5137337;27;19924;-78
2021/03/31 01:07:12;;;;;;;;;;;;;;;9.39;100.00;99537.88;5137058;27;19923;-77
2021/03/31 01:09:40;;;;;;;;;;;;;;;9.52;100.00;99527.06;5131669;27;20370;-77
2021/03/31 01:12:18;;;;;;;;;;;;;;;9.49;100.00;99525.09;5125563;27;19924;-77
2021/03/31 01:15:04;;;;;;;;;;;;;;;9.39;100.00;99531.53;5101795;27;19947;-77
2021/03/31 01:17:37;;;;;;;;;;;;;;;9.33;100.00;99519.19;5120126;27;19927;-77
2021/03/31 01:20:22;;;;;;;;;;;;;;;9.24;100.00;99518.84;5121217;27;20326;-77
2021/03/31 01:23:01;;;;;;;;;;;;;;;9.24;100.00;99524.41;5120038;27;19928;-77
2021/03/31 01:25:31;;;;;;;;;;;;;;;9.16;100.00;99520.84;5125450;27;20448;-77
2021/03/31 01:28:16;;;;;;;;;;;;;;;9.14;100.00;99514.88;5098447;27;20394;-78
2021/03/31 01:30:56;;;;;;;;;;;;;;;9.09;100.00;99521.66;5124568;27;19928;-77
2021/03/31 01:33:23;;;;;;;;;;;;;;;9.10;100.00;99526.03;5110739;28;20433;-77
2021/03/31 01:35:51;;;;;;;;;;;;;;;9.03;100.00;99520.47;5107269;27;19943;-77
2021/03/31 01:38:20;;;;;;;;;;;;;;;8.95;100.00;99507.75;5120454;27;19924;-77
2021/03/31 01:40:49;;;;;;;;;;;;;;;8.96;100.00;99503.78;5121098;27;20118;-77
2021/03/31 01:43:17;;;;;;;;;;;;;;;8.99;100.00;99500.19;5135791;27;19923;-77
2021/03/31 01:45:47;;;;;;;;;;;;;;;8.94;100.00;99495.03;5135452;27;19924;-77
2021/03/31 01:48:19;;;;;;;;;;;;;;;8.81;100.00;99493.88;5117150;27;20336;-77
2021/03/31 01:50:50;;;;;;;;;;;;;;;8.69;100.00;99491.47;5117396;27;19931;-77
2021/03/31 01:53:18;;;;;;;;;;;;;;;8.62;100.00;99491.50;5135578;27;19984;-77
2021/03/31 01:55:48;;;;;;;;;;;;;;;8.65;100.00;99487.91;5134957;27;20007;-79
2021/03/31 01:58:16;;;;;;;;;;;;;;;8.56;100.00;99478.38;5117183;27;20392;-78
2021/03/31 02:00:43;;;;;;;;;;;;;;;8.47;100.00;99481.56;5116948;27;19944;-79
2021/03/31 02:03:10;;;;;;;;;;;;;;;8.25;100.00;99477.22;5135305;27;19968;-78
2021/03/31 02:05:37;;;;;;;;;;;;;;;8.14;100.00;99472.81;5134861;27;19960;-79
2021/03/31 02:08:05;;;;;;;;;;;;;;;8.28;100.00;99476.44;5135623;27;19930;-78
2021/03/31 02:10:31;;;;;;;;;;;;;;;8.19;100.00;99477.97;5116635;27;19924;-78
2021/03/31 02:12:59;;;;;;;;;;;;;;;8.16;100.00;99479.59;5134892;27;20064;-78
2021/03/31 02:15:26;;;;;;;;;;;;;;;8.18;100.00;99485.53;5123789;27;19930;-78
2021/03/31 02:17:55;;;;;;;;;;;;;;;8.24;100.00;99477.63;5131747;27;19928;-78
2021/03/31 02:20:22;;;;;;;;;;;;;;;7.91;100.00;99480.72;5116576;27;19937;-78
2021/03/31 02:22:50;;;;;;;;;;;;;;;7.95;100.00;99487.88;5099582;27;20293;-78
2021/03/31 02:25:18;;;;;;;;;;;;;;;7.94;100.00;99491.88;5134936;27;20290;-78
2021/03/31 02:27:45;;;;;;;;;;;;;;;7.91;100.00;99481.53;5134561;27;19927;-78
2021/03/31 02:30:13;;;;;;;;;;;;;;;7.86;100.00;99475.59;5134771;27;20030;-78
2021/03/31 02:32:41;;;;;;;;;;;;;;;7.72;100.00;99470.78;5116520;27;20013;-78
2021/03/31 02:35:08;;;;;;;;;;;;;;;7.69;100.00;99465.22;5134370;27;19930;-78
2021/03/31 02:37:38;;;;;;;;;;;;;;;7.75;100.00;99469.19;5115984;27;20411;-78
2021/03/31 02:40:06;;;;;;;;;;;;;;;7.83;100.00;99457.66;5134272;27;19924;-79
2021/03/31 02:42:34;;;;;;;;;;;;;;;7.83;100.00;99459.69;5113935;28;19931;-78
2021/03/31 02:45:01;;;;;;;;;;;;;;;7.87;100.00;99461.28;5126515;27;20435;-78
2021/03/31 02:47:29;;;;;;;;;;;;;;;7.98;100.00;99450.94;5134164;27;19930;-79
2021/03/31 02:50:01;;;;;;;;;;;;;;;8.02;100.00;99443.38;5116139;27;19923;-78
2021/03/31 02:52:28;;;;;;;;;;;;;;;8.08;100.00;99447.38;5116004;27;19923;-79
2021/03/31 02:54:56;;;;;;;;;;;;;;;8.16;100.00;99448.97;5134098;27;19923;-78
2021/03/31 02:57:22;;;;;;;;;;;;;;;7.96;100.00;99450.53;5115386;27;19923;-78
2021/03/31 02:59:50;;;;;;;;;;;;;;;7.95;100.00;99456.50;5134615;27;20370;-78
2021/03/31 03:02:18;;;;;;;;;;;;;;;7.88;100.00;99453.69;5134034;27;19930;-78
2021/03/31 03:04:46;;;;;;;;;;;;;;;7.92;100.00;99448.94;5134025;27;20309;-78
2021/03/31 03:07:13;;;;;;;;;;;;;;;7.84;100.00;99447.34;5115676;27;19924;-78
2021/03/31 03:09:40;;;;;;;;;;;;;;;7.81;100.00;99435.03;5133578;27;19924;-78
2021/03/31 03:12:09;;;;;;;;;;;;;;;7.84;100.00;99439.00;5134186;27;19929;-78
2021/03/31 03:14:35;;;;;;;;;;;;;;;7.68;100.00;99431.03;5133775;27;20394;-78
2021/03/31 03:17:02;;;;;;;;;;;;;;;7.82;100.00;99439.41;5133048;27;20441;-78
2021/03/31 03:19:29;;;;;;;;;;;;;;;7.98;100.00;99434.22;5115477;27;19924;-78
2021/03/31 03:21:56;;;;;;;;;;;;;;;7.86;100.00;99431.84;5133737;27;19950;-78
2021/03/31 03:24:23;;;;;;;;;;;;;;;7.89;100.00;99431.03;5094574;28;19924;-78
2021/03/31 03:26:51;;;;;;;;;;;;;;;7.79;100.00;99437.41;5120091;27;19927;-78
2021/03/31 03:29:19;;;;;;;;;;;;;;;7.85;100.00;99427.47;5115389;27;20052;-78
2021/03/31 03:31:46;;;;;;;;;;;;;;;7.88;100.00;99420.31;5115171;27;20034;-78
2021/03/31 03:34:13;;;;;;;;;;;;;;;7.84;100.00;99425.91;5133637;27;19923;-78
2021/03/31 03:36:41;;;;;;;;;;;;;;;7.85;100.00;99421.91;5115144;28;19950;-78
2021/03/31 03:39:08;;;;;;;;;;;;;;;7.81;100.00;99421.13;5133852;27;20447;-79
2021/03/31 03:41:35;;;;;;;;;;;;;;;7.77;100.00;99420.31;5133605;27;19923;-78
2021/03/31 03:44:03;;;;;;;;;;;;;;;7.79;100.00;99417.94;5133237;27;20012;-79
2021/03/31 03:46:31;;;;;;;;;;;;;;;7.96;100.00;99419.94;5133179;27;19927;-78
2021/03/31 03:48:59;;;;;;;;;;;;;;;7.85;100.00;99416.34;5133344;27;19976;-79
2021/03/31 03:51:26;;;;;;;;;;;;;;;7.70;100.00;99420.31;5131379;28;19975;-78
2021/03/31 03:53:53;;;;;;;;;;;;;;;7.39;100.00;99412.72;5124080;28;19924;-78
2021/03/31 03:56:20;;;;;;;;;;;;;;;7.38;100.00;99413.91;5132760;28;19923;-78
2021/03/31 03:58:47;;;;;;;;;;;;;;;7.46;100.00;99415.50;5133388;28;19976;-78
2021/03/31 04:01:13;;;;;;;;;;;;;;;7.51;100.00;99417.91;5133069;28;20289;-78
2021/03/31 04:03:40;;;;;;;;;;;;;;;7.52;100.00;99408.38;5115159;28;19946;-79
2021/03/31 04:06:08;;;;;;;;;;;;;;;7.54;100.00;99406.00;5132991;28;19931;-78
2021/03/31 04:08:35;;;;;;;;;;;;;;;7.49;100.00;99409.16;5133339;28;19927;-78
2021/03/31 04:11:03;;;;;;;;;;;;;;;7.53;100.00;99412.72;5132962;28;20400;-78
2021/03/31 04:13:30;;;;;;;;;;;;;;;7.58;100.00;99412.34;5133284;28;19930;-79
2021/03/31 04:15:59;;;;;;;;;;;;;;;7.55;100.00;99415.13;5132940;28;20370;-78
2021/03/31 04:18:27;;;;;;;;;;;;;;;7.56;100.00;99409.16;5133147;28;19934;-78
2021/03/31 04:20:54;;;;;;;;;;;;;;;7.43;100.00;99409.94;5132871;28;20298;-78
2021/03/31 04:23:21;;;;;;;;;;;;;;;7.58;100.00;99417.91;5133148;28;19931;-78
2021/03/31 04:25:47;;;;;;;;;;;;;;;7.57;100.00;99410.78;5118119;28;19931;-78
2021/03/31 04:28:15;;;;;;;;;;;;;;;7.62;100.00;99415.94;5096834;28;20018;-78
2021/03/31 04:30:43;;;;;;;;;;;;;;;7.63;100.00;99408.38;5116110;27;19962;-79
2021/03/31 04:33:10;;;;;;;;;;;;;;;7.71;100.00;99405.22;5115498;27;19935;-79
2021/03/31 04:35:37;;;;;;;;;;;;;;;7.75;100.00;99403.25;5115830;27;19931;-79
2021/03/31 04:38:11;;;;;;;;;;;;;;;7.78;100.00;99410.00;5127963;27;19923;-78
2021/03/31 04:40:47;;;;;;;;;;;;;;;7.72;100.00;99404.03;5103815;27;19996;-78
2021/03/31 04:43:13;;;;;;;;;;;;;;;7.71;100.00;99401.66;5120618;27;19924;-78
2021/03/31 04:45:40;;;;;;;;;;;;;;;7.78;100.00;99394.09;5094049;28;19928;-78
2021/03/31 04:48:08;;;;;;;;;;;;;;;7.79;100.00;99392.09;5115994;28;20387;-78
2021/03/31 04:50:34;;;;;;;;;;;;;;;7.78;100.00;99387.72;5121945;27;19970;-78
2021/03/31 04:53:01;;;;;;;;;;;;;;;7.80;100.00;99380.56;5123912;27;19928;-78
2021/03/31 04:55:27;;;;;;;;;;;;;;;7.76;100.00;99390.91;5127955;27;19931;-78
2021/03/31 04:57:54;;;;;;;;;;;;;;;7.63;100.00;99380.56;5106260;27;19970;-78
2021/03/31 05:00:21;;;;;;;;;;;;;;;7.57;100.00;99385.75;5100655;28;20291;-78
2021/03/31 05:02:48;;;;;;;;;;;;;;;7.49;100.00;99389.69;5102433;28;19953;-78
2021/03/31 05:05:14;;;;;;;;;;;;;;;7.55;100.00;99390.91;5130078;27;20068;-78
2021/03/31 05:07:41;;;;;;;;;;;;;;;7.55;100.00;99396.47;5115738;28;20416;-78
2021/03/31 05:10:08;;;;;;;;;;;;;;;7.42;100.00;99389.69;5128304;27;19924;-78
2021/03/31 05:12:34;;;;;;;;;;;;;;;7.31;100.00;99388.88;5136257;27;19958;-78
2021/03/31 05:15:01;;;;;;;;;;;;;;;7.53;100.00;99387.72;5136329;27;19924;-78
2021/03/31 05:17:29;;;;;;;;;;;;;;;7.19;100.00;99386.47;5136047;27;19931;-78
2021/03/31 05:19:56;;;;;;;;;;;;;;;7.25;100.00;99377.31;5135978;27;20354;-78
2021/03/31 05:22:23;;;;;;;;;;;;;;;7.32;100.00;99382.13;5117584;27;20267;-78
2021/03/31 05:24:49;;;;;;;;;;;;;;;7.30;100.00;99379.72;5116376;27;20259;-78
2021/03/31 05:27:16;;;;;;;;;;;;;;;7.31;100.00;99386.09;5117048;27;20014;-78
2021/03/31 05:29:43;;;;;;;;;;;;;;;7.46;100.00;99389.69;5131386;27;19928;-78
2021/03/31 05:32:09;;;;;;;;;;;;;;;7.55;100.00;99390.91;5115381;28;20004;-78
2021/03/31 05:34:36;;;;;;;;;;;;;;;7.47;100.00;99383.72;5131649;27;20356;-78
2021/03/31 05:37:03;;;;;;;;;;;;;;;7.46;100.00;99382.16;5109829;27;20309;-78
2021/03/31 05:39:31;;;;;;;;;;;;;;;7.53;100.00;99378.59;5113965;27;20356;-78
2021/03/31 05:41:58;;;;;;;;;;;;;;;7.45;100.00;99379.75;5115400;27;19924;-78
2021/03/31 05:44:25;;;;;;;;;;;;;;;7.51;100.00;99372.63;5106159;28;19931;-78
2021/03/31 05:46:52;;;;;;;;;;;;;;;7.57;100.00;99371.03;5093725;27;19931;-88
2021/03/31 05:49:19;;;;;;;;;;;;;;;7.63;100.00;99373.03;5112531;27;19934;-77
2021/03/31 05:51:45;;;;;;;;;;;;;;;7.61;100.00;99371.81;5115526;27;20018;-75
2021/03/31 05:54:12;;;;;;;;;;;;;;;7.55;100.00;99365.88;5106064;27;19955;-76
2021/03/31 05:56:41;;;;;;;;;;;;;;;7.64;100.00;99369.06;5111017;27;19931;-76
2021/03/31 05:59:08;;;;;;;;;;;;;;;7.74;100.00;99371.03;5114711;27;19924;-75
2021/03/31 06:01:36;;;;;;;;;;;;;;;7.71;100.00;99371.06;5113221;27;20015;-76
2021/03/31 06:04:03;;;;;;;;;;;;;;;7.69;100.00;99359.53;5127628;27;20393;-76
2021/03/31 06:06:29;;;;;;;;;;;;;;;7.71;100.00;99355.13;5093644;28;19927;-76
2021/03/31 06:08:57;;;;;;;;;;;;;;;7.63;100.00;99359.13;5123197;27;19923;-76
2021/03/31 06:11:23;;;;;;;;;;;;;;;7.53;100.00;99354.34;5109353;28;20016;-76
2021/03/31 06:13:56;;;;;;;;;;;;;;;7.56;100.00;99364.66;5110945;27;20383;-75
2021/03/31 06:16:34;;;;;;;;;;;;;;;7.50;100.00;99380.16;5115985;27;19928;-76
2021/03/31 06:19:17;;;;;;;;;;;;;;;7.44;100.00;99384.53;5128657;27;20040;-76
2021/03/31 06:22:00;;;;;;;;;;;;;;;7.36;100.00;99380.94;5109542;28;19924;-75
2021/03/31 06:24:31;;;;;;;;;;;;;;;7.14;100.00;99376.53;5113553;27;19924;-75
2021/03/31 06:26:58;;;;;;;;;;;;;;;7.11;100.00;99366.19;5121348;27;19928;-76
2021/03/31 06:29:35;;;;;;;;;;;;;;;7.01;100.00;99366.19;5113400;27;19991;-75
2021/03/31 06:32:12;;;;;;;;;;;;;;;7.10;100.00;99374.94;5113817;27;19924;-75
2021/03/31 06:34:50;;;;;;;;;;;;;;;7.22;100.00;99377.34;5132670;27;19927;-75
2021/03/31 06:37:28;;;;;;;;;;;;;;;7.41;100.00;99367.84;5134492;27;19927;-75
2021/03/31 06:39:56;;;;;;;;;;;;;;;7.54;100.00;99350.38;5134438;27;19930;-75
2021/03/31 06:42:38;;;;;;;;;;;;;;;7.50;100.00;99355.13;5132993;27;19923;-75
2021/03/31 06:50:14;;;;;;;;;;;;;;;7.85;100.00;99349.59;5133632;27;20486;-78
2021/03/31 06:52:53;;;;;;;;;;;;;;;8.03;100.00;99355.13;5116022;27;20132;-78
2021/03/31 06:55:20;;;;;;;;;;;;;;;8.23;100.00;99359.91;5111956;27;20302;-79
2021/03/31 06:57:52;;;;;;;;;;;;;;;8.60;100.00;99356.63;5118063;27;20027;-78
2021/03/31 07:00:30;;;;;;;;;;;;;;;9.16;100.00;99351.56;5124630;27;19930;-78
2021/03/31 07:02:59;;;;;;;;;;;;;;;9.19;100.00;99338.81;5119366;27;19924;-78
2021/03/31 07:05:30;;;;;;;;;;;;;;;8.90;100.00;99340.97;5108352;27;19927;-78
2021/03/31 07:08:06;;;;;;;;;;;;;;;8.96;100.00;99347.72;5107961;28;20073;-78
2021/03/31 07:10:48;;;;;;;;;;;;;;;9.00;100.00;99348.47;5107813;28;20393;-78
2021/03/31 07:13:28;;;;;;;;;;;;;;;8.96;100.00;99353.28;5107561;27;19959;-79
2021/03/31 07:15:55;;;;;;;;;;;;;;;8.83;100.00;99343.78;5115390;27;19923;-78
2021/03/31 07:18:22;;;;;;;;;;;;;;;8.99;100.00;99360.03;5127736;27;19923;-78
2021/03/31 07:20:49;;;;;;;;;;;;;;;9.32;100.00;99353.06;5118633;27;19927;-79
2021/03/31 07:23:16;;;;;;;;;;;;;;;9.31;100.00;99357.06;5114103;27;20023;-81
2021/03/31 07:25:42;;;;;;;;;;;;;;;9.47;100.00;99349.78;5088682;27;19951;-91
2021/03/31 07:28:11;;;;;;;;;;;;;;;9.46;100.00;99355.75;5070194;27;19972;-92
2021/03/31 07:30:38;;;;;;;;;;;;;;;9.38;100.00;99355.00;5051054;28;19924;-78
2021/03/31 07:33:28;;;;;;;;;;;;;;;9.36;100.00;99356.63;5116556;27;19928;-77
2021/03/31 07:35:56;;;;;;;;;;;;;;;9.77;100.00;99351.94;5107279;28;20367;-76
2021/03/31 07:38:23;;;;;;;;;;;;;;;9.99;100.00;99347.75;5082154;28;20382;-77
2021/03/31 07:40:51;;;;;;;;;;;;;;;10.42;100.00;99354.56;5113766;28;19928;-76
2021/03/31 07:43:37;;;;;;;;;;;;;;;10.45;100.00;99334.94;5116487;28;20283;-78
2021/03/31 07:46:06;;;;;;;;;;;;;;;11.17;100.00;99332.84;5122575;27;19988;-77
2021/03/31 07:48:34;;;;;;;;;;;;;;;12.07;100.00;99327.03;5119048;28;19923;-84
2021/03/31 07:51:19;;;;;;;;;;;;;;;13.00;100.00;99319.19;5115278;28;19934;-82
2021/03/31 07:53:47;;;;;;;;;;;;;;;13.89;100.00;99302.63;5100639;28;20275;-82
2021/03/31 07:56:17;;;;;;;;;;;;;;;14.74;100.00;99304.75;5100045;28;20012;-86
2021/03/31 07:59:08;;;;;;;;;;;;;;;15.24;100.00;99287.97;5086686;28;19924;-81
2021/03/31 08:01:37;;;;;;;;;;;;;;;15.62;100.00;99269.06;5109495;28;20335;-83
2021/03/31 08:04:04;;;;;;;;;;;;;;;15.84;100.00;99267.09;5121992;27;20014;-83
2021/03/31 08:06:31;;;;;;;;;;;;;;;16.22;100.00;99259.31;5134421;27;20052;-83
2021/03/31 08:09:04;;;;;;;;;;;;;;;16.74;100.00;99258.66;5133587;27;19923;-83
2021/03/31 08:11:36;;;;;;;;;;;;;;;17.07;100.00;99254.13;5135208;27;19992;-83
2021/03/31 08:14:04;;;;;;;;;;;;;;;17.41;100.00;99247.53;5118565;27;20014;-78
2021/03/31 08:16:37;;;;;;;;;;;;;;;17.60;100.00;99250.00;5100316;28;19931;-78
2021/03/31 08:19:08;;;;;;;;;;;;;;;17.70;100.00;99250.81;5101616;27;20010;-76
2021/03/31 08:21:35;;;;;;;;;;;;;;;17.60;100.00;99232.25;5123519;27;20105;-79
2021/03/31 08:24:13;;;;;;;;;;;;;;;17.26;100.00;99236.06;5119978;27;19963;-79
2021/03/31 08:26:43;;;;;;;;;;;;;;;16.85;100.00;99232.84;5097754;27;19928;-79
2021/03/31 08:29:19;;;;;;;;;;;;;;;16.47;100.00;99226.63;5120482;27;19932;-80
2021/03/31 08:32:06;;;;;;;;;;;;;;;16.24;100.00;99239.94;5106548;27;19979;-81
2021/03/31 08:34:33;;;;;;;;;;;;;;;15.89;100.00;99235.53;5119341;27;19959;-81
2021/03/31 08:37:04;;;;;;;;;;;;;;;15.64;100.00;99229.97;5098837;28;19934;-81
2021/03/31 08:39:30;;;;;;;;;;;;;;;15.53;100.00;99229.53;5118273;27;20429;-81
2021/03/31 08:41:59;;;;;;;;;;;;;;;15.92;100.00;99226.16;5116626;28;19923;-81
2021/03/31 08:44:29;;;;;;;;;;;;;;;16.86;100.00;99237.22;5095728;27;20018;-81
2021/03/31 08:46:56;;;;;;;;;;;;;;;17.12;100.00;99244.28;5116840;27;19982;-81
2021/03/31 08:49:24;;;;;;;;;;;;;;;17.30;100.00;99244.34;5107316;27;19932;-81
2021/03/31 08:51:53;;;;;;;;;;;;;;;17.70;100.00;99243.13;5134084;27;19923;-81
2021/03/31 08:54:35;;;;;;;;;;;;;;;17.46;100.00;99244.91;5124247;27;20560;-82
2021/03/31 08:57:04;;;;;;;;;;;;;;;17.56;100.00;99245.75;5126753;27;19924;-81
2021/03/31 08:59:32;;;;;;;;;;;;;;;17.47;100.00;99237.25;5116729;28;19928;-81
2021/03/31 09:01:58;;;;;;;;;;;;;;;17.49;100.00;99244.00;5098494;28;20387;-81
2021/03/31 09:04:27;;;;;;;;;;;;;;;17.61;100.00;99236.66;5119785;27;20145;-81
2021/03/31 09:06:54;;;;;;;;;;;;;;;17.90;100.00;99237.06;5121469;27;19952;-81
2021/03/31 09:09:21;;;;;;;;;;;;;;;17.88;100.00;99242.38;5115850;28;20030;-81
2021/03/31 09:11:48;;;;;;;;;;;;;;;18.26;100.00;99231.41;5097728;28;19924;-81
2021/03/31 09:14:17;;;;;;;;;;;;;;;18.43;100.00;99234.75;5119424;27;20460;-81
2021/03/31 09:16:55;;;;;;;;;;;;;;;18.51;100.00;99239.59;5116644;27;20018;-81
2021/03/31 09:19:26;;;;;;;;;;;;;;;18.68;100.00;99232.34;5106003;27;20015;-81
2021/03/31 09:21:53;;;;;;;;;;;;;;;18.77;100.00;99229.50;5107184;28;20012;-81
2021/03/31 09:24:22;;;;;;;;;;;;;;;18.83;100.00;99238.94;5128901;27;19928;-81
2021/03/31 09:27:00;;;;;;;;;;;;;;;18.72;100.00;99229.38;5120315;27;20378;-80
2021/03/31 09:29:27;;;;;;;;;;;;;;;18.36;100.00;99235.81;5119712;27;19978;-80
2021/03/31 09:31:54;;;;;;;;;;;;;;;17.98;100.00;99236.25;5115768;28;19989;-78
2021/03/31 09:34:32;;;;;;;;;;;;;;;17.88;100.00;99237.53;5098746;28;20290;-79
2021/03/31 09:37:04;;;;;;;;;;;;;;;17.98;100.00;99229.03;5125937;27;20390;-79
2021/03/31 09:39:37;;;;;;;;;;;;;;;17.99;100.00;99226.50;5123647;27;20061;-79
2021/03/31 09:42:04;;;;;;;;;;;;;;;17.89;100.00;99232.63;5093886;27;19923;-79
2021/03/31 09:44:32;;;;;;;;;;;;;;;17.84;100.00;99236.88;5129991;27;19923;-79
2021/03/31 09:46:59;;;;;;;;;;;;;;;17.46;100.00;99230.78;5103306;27;20287;-78
2021/03/31 09:49:26;;;;;;;;;;;;;;;17.42;100.00;99227.31;5122336;27;19950;-78
2021/03/31 09:51:52;;;;;;;;;;;;;;;16.98;100.00;99236.38;5122272;27;19924;-78
2021/03/31 09:54:20;;;;;;;;;;;;;;;16.98;100.00;99230.75;5111042;27;20061;-79
2021/03/31 09:56:47;;;;;;;;;;;;;;;17.03;100.00;99232.94;5117353;27;20402;-78
2021/03/31 09:59:13;;;;;;;;;;;;;;;17.12;100.00;99239.44;5123353;27;19923;-78
2021/03/31 10:01:40;;;;;;;;;;;;;;;17.14;100.00;99233.31;5097299;28;19931;-78
2021/03/31 10:04:07;;;;;;;;;;;;;;;16.98;100.00;99233.56;5134526;27;20374;-78
2021/03/31 10:06:35;;;;;;;;;;;;;;;16.83;100.00;99230.50;5118134;27;19930;-78
2021/03/31 10:09:12;;;;;;;;;;;;;;;16.87;100.00;99239.63;5135650;27;19930;-78
2021/03/31 10:11:39;;;;;;;;;;;;;;;17.00;100.00;99237.50;5136107;27;19927;-80
2021/03/31 10:14:20;;;;;;;;;;;;;;;17.20;100.00;99232.25;5136063;27;19976;-80
2021/03/31 10:16:48;;;;;;;;;;;;;;;17.39;100.00;99227.44;5117675;27;19938;-80
2021/03/31 10:22:34;;;;;;;;;;;;;;;17.24;100.00;99232.09;5115148;27;20016;-80
2021/03/31 10:25:23;;;;;;;;;;;;;;;17.31;100.00;99229.78;5121663;27;19936;-80
2021/03/31 10:28:03;;;;;;;;;;;;;;;17.30;100.00;99218.94;5106147;27;19923;-80
2021/03/31 10:30:50;;;;;;;;;;;;;;;17.24;100.00;99209.50;5128672;27;20026;-80
2021/03/31 10:33:36;;;;;;;;;;;;;;;17.16;100.00;99214.66;5124190;27;19930;-81
2021/03/31 10:36:05;;;;;;;;;;;;;;;17.17;100.00;99223.91;5133299;27;19927;-80
2021/03/31 10:38:42;;;;;;;;;;;;;;;17.32;100.00;99219.28;5096594;28;19924;-80
2021/03/31 10:41:31;;;;;;;;;;;;;;;17.56;100.00;99221.13;5115382;27;19928;-80
2021/03/31 10:52:21;;;;;;;;;;;;;;;17.48;100.00;99219.03;5123401;27;19965;-80
2021/03/31 10:54:48;;;;;;;;;;;;;;;17.61;100.00;99208.41;5132548;27;19923;-80
2021/03/31 10:57:15;;;;;;;;;;;;;;;17.84;100.00;99211.44;5096344;28;19938;-81
2021/03/31 10:59:42;;;;;;;;;;;;;;;18.06;100.00;99216.94;5089815;28;19924;-80
2021/03/31 11:02:09;;;;;;;;;;;;;;;18.10;100.00;99213.97;5116530;27;19931;-80
2021/03/31 11:04:36;;;;;;;;;;;;;;;18.09;100.00;99218.84;5135122;27;19924;-80
2021/03/31 11:07:03;;;;;;;;;;;;;;;18.13;100.00;99213.81;5098484;27;20019;-82
2021/03/31 11:09:29;;;;;;;;;;;;;;;18.38;100.00;99219.19;5121408;27;19923;-79
2021/03/31 11:11:57;;;;;;;;;;;;;;;18.26;100.00;99219.31;5134771;27;19923;-79
2021/03/31 11:14:24;;;;;;;;;;;;;;;18.33;100.00;99213.31;5092647;28;20302;-78
2021/03/31 11:27:13;;;;;;;;;;;;;;;18.10;100.00;99192.13;5092474;28;20397;-80
2021/03/31 11:29:39;;;;;;;;;;;;;;;18.13;100.00;99196.84;5096977;28;19951;-79
2021/03/31 11:32:06;;;;;;;;;;;;;;;18.18;100.00;99186.94;5091642;28;19931;-80
2021/03/31 11:34:33;;;;;;;;;;;;;;;18.28;100.00;99197.00;5113033;28;19924;-80
2021/03/31 11:36:59;;;;;;;;;;;;;;;18.45;100.00;99201.88;5115562;27;19924;-80
2021/03/31 11:39:26;;;;;;;;;;;;;;;18.46;100.00;99191.38;5115141;27;20009;-80
2021/03/31 11:41:53;;;;;;;;;;;;;;;18.39;100.00;99192.47;5112671;28;19928;-79
2021/03/31 11:44:19;;;;;;;;;;;;;;;18.43;100.00;99190.28;5099983;28;20302;-80
2021/03/31 11:46:46;;;;;;;;;;;;;;;18.34;100.00;99189.47;5118642;27;19923;-80
2021/03/31 11:49:12;;;;;;;;;;;;;;;18.49;100.00;99185.53;5130034;27;19924;-79
2021/03/31 11:51:39;;;;;;;;;;;;;;;18.56;100.00;99190.06;5110027;28;19924;-80
2021/03/31 11:54:07;;;;;;;;;;;;;;;18.49;100.00;99181.94;5130445;28;19924;-79
2021/03/31 11:56:34;;;;;;;;;;;;;;;18.53;100.00;99174.03;5127656;28;19930;-80
2021/03/31 11:59:00;;;;;;;;;;;;;;;18.56;100.00;99185.22;5130419;28;19927;-79
2021/03/31 12:01:27;;;;;;;;;;;;;;;18.53;100.00;99186.16;5112151;28;19973;-80
2021/03/31 12:03:55;;;;;;;;;;;;;;;18.46;100.00;99192.16;5114746;28;20289;-79
2021/03/31 12:06:21;;;;;;;;;;;;;;;18.31;100.00;99191.16;5133059;28;19927;-79
2021/03/31 12:08:50;;;;;;;;;;;;;;;18.30;100.00;99189.59;5133204;28;19923;-79
2021/03/31 12:11:17;;;;;;;;;;;;;;;18.44;100.00;99189.00;5133358;28;20018;-80
2021/03/31 12:13:44;;;;;;;;;;;;;;;18.63;100.00;99179.22;5133228;28;20014;-79
2021/03/31 12:16:11;;;;;;;;;;;;;;;18.76;100.00;99177.00;5133059;28;20390;-79
2021/03/31 12:18:37;;;;;;;;;;;;;;;18.87;100.00;99182.91;5114854;28;19977;-79
2021/03/31 12:21:05;;;;;;;;;;;;;;;18.91;100.00;99185.59;5132705;28;20022;-80
2021/03/31 12:23:32;;;;;;;;;;;;;;;18.86;100.00;99187.03;5133177;28;19923;-80
2021/03/31 12:26:00;;;;;;;;;;;;;;;18.85;100.00;99174.13;5097540;28;20018;-79
2021/03/31 12:28:27;;;;;;;;;;;;;;;18.77;100.00;99178.56;5133118;28;19924;-79
2021/03/31 12:30:54;;;;;;;;;;;;;;;18.77;100.00;99181.38;5114839;28;19961;-79
2021/03/31 12:33:20;;;;;;;;;;;;;;;18.64;100.00;99169.47;5132802;28;20014;-79
2021/03/31 12:35:47;;;;;;;;;;;;;;;18.87;100.00;99173.66;5114558;28;19951;-79
2021/03/31 12:38:14;;;;;;;;;;;;;;;18.92;100.00;99170.94;5114387;28;19930;-79
2021/03/31 12:40:40;;;;;;;;;;;;;;;19.09;100.00;99177.81;5127617;28;19928;-79
2021/03/31 12:43:08;;;;;;;;;;;;;;;19.27;100.00;99168.47;5130956;28;19928;-80
2021/03/31 12:45:35;;;;;;;;;;;;;;;19.37;100.00;99165.09;5133070;28;19923;-80
2021/03/31 12:48:02;;;;;;;;;;;;;;;19.48;100.00;99170.25;5102874;28;19992;-80
2021/03/31 12:50:28;;;;;;;;;;;;;;;19.53;100.00;99166.75;5110871;28;19924;-79
2021/03/31 12:53:01;;;;;;;;;;;;;;;19.34;100.00;99171.75;5119435;27;20310;-79
2021/03/31 12:55:31;;;;;;;;;;;;;;;19.13;100.00;99166.31;5119883;27;19927;-79
2021/03/31 12:58:05;;;;;;;;;;;;;;;19.06;100.00;99169.50;5120579;27;19923;-79
2021/03/31 13:00:32;;;;;;;;;;;;;;;18.92;100.00;99168.13;5134680;27;19981;-80
2021/03/31 13:02:58;;;;;;;;;;;;;;;18.90;100.00;99173.47;5136768;27;19928;-79
2021/03/31 13:05:25;;;;;;;;;;;;;;;19.06;100.00;99173.13;5114804;27;19928;-79
2021/03/31 13:07:51;;;;;;;;;;;;;;;19.20;100.00;99165.97;5133084;27;20373;-79
2021/03/31 13:10:40;;;;;;;;;;;;;;;19.10;100.00;99159.56;5117975;27;19930;-79
2021/03/31 13:16:02;;;;;;;;;;;;;;;19.31;100.00;99161.38;5132601;27;19923;-79
2021/03/31 13:25:05;;;;;;;;;;;;;;;19.39;100.00;99151.25;5126880;27;19946;-80
2021/03/31 13:27:42;;;;;;;;;;;;;;;19.40;100.00;99147.16;5124447;27;20353;-80
2021/03/31 13:30:36;;;;;;;;;;;;;;;19.33;100.00;99149.56;5122682;27;19928;-80